Time;durP1;ratioP1;P1;durP2;ratioP2;P2;SDS_P1;SDS_P2;PMS_P1;PMS_P2;Temp;Humidity;BMP_temperature;BMP_pressure;BME280_temperature;BME280_humidity;BME280_pressure;Samples;Min_cycle;Max_cycle;Signal;HPM_P1;HPM_P2
2022/05/21 00:01:34;;;;;;;5.13;3.08;;;20.70;65.00;;;;;;10413080;28;20042;-54
2022/05/21 00:06:34;;;;;;;5.22;2.78;;;20.70;65.10;;;;;;10412748;28;20029;-55
2022/05/21 00:11:36;;;;;;;4.35;2.38;;;20.70;65.00;;;;;;10412946;28;20541;-55
2022/05/21 00:16:37;;;;;;;6.10;2.92;;;20.70;64.90;;;;;;10412733;28;20033;-54
2022/05/21 00:21:38;;;;;;;5.10;3.53;;;20.70;64.90;;;;;;10410983;28;20029;-55
2022/05/21 00:26:38;;;;;;;4.35;2.60;;;20.70;64.80;;;;;;10412629;28;20035;-54
2022/05/21 00:31:39;;;;;;;5.07;2.47;;;20.60;64.70;;;;;;10411986;28;20120;-54
2022/05/21 00:36:39;;;;;;;5.63;2.47;;;20.70;64.70;;;;;;10412417;28;20039;-54
2022/05/21 00:41:40;;;;;;;3.45;2.42;;;20.60;64.50;;;;;;10411932;28;20057;-53
2022/05/21 00:46:44;;;;;;;4.60;2.05;;;20.70;65.20;;;;;;10412046;28;20033;-54
2022/05/21 00:52:07;;;;;;;3.58;2.63;;;20.60;64.50;;;;;;10411102;28;20061;-54
2022/05/21 00:57:31;;;;;;;6.65;2.03;;;20.60;64.60;;;;;;10425251;28;20033;-53
2022/05/21 01:02:47;;;;;;;6.32;2.33;;;20.60;64.70;;;;;;10412692;28;20086;-53
2022/05/21 01:07:50;;;;;;;4.03;1.83;;;20.60;64.70;;;;;;10419460;28;20500;-54
2022/05/21 01:12:54;;;;;;;3.45;1.88;;;20.60;64.60;;;;;;10418864;28;20040;-54
2022/05/21 01:17:55;;;;;;;2.80;1.45;;;20.60;64.50;;;;;;10415016;28;20088;-55
2022/05/21 01:22:56;;;;;;;4.57;2.38;;;20.60;64.50;;;;;;10420583;28;20665;-54
2022/05/21 01:27:56;;;;;;;3.35;1.70;;;20.60;64.50;;;;;;10418561;28;20057;-54
2022/05/21 01:32:57;;;;;;;3.00;2.03;;;20.60;64.60;;;;;;10417732;28;20163;-55
2022/05/21 01:37:58;;;;;;;3.53;2.22;;;20.60;64.70;;;;;;10418287;28;20108;-55
2022/05/21 01:48:21;;;;;;;3.33;2.10;;;20.50;64.60;;;;;;10418399;28;20029;-55
2022/05/21 01:53:25;;;;;;;3.70;1.92;;;20.50;64.70;;;;;;10417422;28;20041;-54
2022/05/21 01:58:27;;;;;;;4.25;1.80;;;20.50;64.60;;;;;;10417475;28;20071;-55
2022/05/21 02:03:28;;;;;;;4.28;2.67;;;20.50;64.50;;;;;;10413410;28;20516;-53
2022/05/21 02:08:29;;;;;;;3.60;2.03;;;20.50;64.60;;;;;;10405882;28;20026;-54
2022/05/21 02:13:32;;;;;;;2.90;1.67;;;20.50;64.50;;;;;;10416341;28;20025;-54
2022/05/21 02:18:33;;;;;;;3.25;1.88;;;20.50;64.50;;;;;;10416247;28;20098;-55
2022/05/21 02:23:34;;;;;;;4.30;2.33;;;20.50;64.60;;;;;;10418265;28;20079;-55
2022/05/21 02:28:34;;;;;;;2.35;1.58;;;20.50;64.60;;;;;;10431526;28;20511;-55
2022/05/21 02:33:35;;;;;;;3.78;2.35;;;20.40;64.50;;;;;;10415627;28;20138;-55
2022/05/21 02:43:55;;;;;;;3.92;1.98;;;20.50;64.60;;;;;;10415268;28;20045;-53
2022/05/21 02:48:56;;;;;;;4.32;2.33;;;20.40;64.50;;;;;;10415436;28;20026;-56
2022/05/21 02:53:57;;;;;;;2.83;1.70;;;20.40;64.50;;;;;;10415098;28;20034;-55
2022/05/21 02:58:57;;;;;;;5.13;1.98;;;20.40;64.50;;;;;;10414876;28;20049;-54
2022/05/21 03:03:58;;;;;;;3.40;1.75;;;20.40;64.60;;;;;;10414686;28;20065;-54
2022/05/21 03:14:18;;;;;;;2.67;1.70;;;20.40;64.60;;;;;;10414385;28;20124;-55
2022/05/21 03:19:19;;;;;;;3.13;2.15;;;20.40;64.50;;;;;;10429514;28;20113;-55
2022/05/21 03:24:20;;;;;;;4.00;1.88;;;20.40;64.50;;;;;;10415343;28;20110;-55
2022/05/21 03:29:20;;;;;;;3.60;1.98;;;20.40;64.60;;;;;;10412337;28;20025;-56
2022/05/21 03:34:21;;;;;;;2.33;1.85;;;20.40;64.60;;;;;;10411897;28;20089;-55
2022/05/21 03:39:22;;;;;;;2.88;1.75;;;20.40;64.60;;;;;;10393821;28;20033;-54
2022/05/21 03:44:23;;;;;;;3.13;2.03;;;20.30;64.50;;;;;;10406905;28;20477;-56
2022/05/21 03:49:23;;;;;;;3.80;2.20;;;20.30;64.50;;;;;;10412098;28;20100;-53
2022/05/21 03:54:24;;;;;;;4.18;2.30;;;20.30;64.50;;;;;;10412667;28;20040;-55
2022/05/21 03:59:25;;;;;;;4.18;2.67;;;20.30;64.50;;;;;;10404081;28;20124;-54
2022/05/21 04:04:26;;;;;;;3.25;1.63;;;20.30;64.50;;;;;;10403404;28;20033;-55
2022/05/21 04:09:28;;;;;;;3.97;2.13;;;20.30;64.60;;;;;;10402553;28;20107;-56
2022/05/21 04:14:29;;;;;;;4.65;1.98;;;20.30;64.60;;;;;;10411081;28;20505;-54
2022/05/21 04:19:31;;;;;;;4.07;1.92;;;20.30;64.60;;;;;;10427312;28;20040;-53
2022/05/21 04:24:32;;;;;;;5.90;2.33;;;20.30;64.60;;;;;;10409811;28;20033;-55
2022/05/21 04:29:33;;;;;;;5.70;2.75;;;20.30;64.80;;;;;;10407451;28;20433;-55
2022/05/21 04:34:33;;;;;;;3.72;2.22;;;20.30;65.50;;;;;;10411824;28;20069;-55
2022/05/21 04:39:34;;;;;;;3.88;2.20;;;20.30;65.00;;;;;;10415297;28;20033;-54
2022/05/21 04:44:35;;;;;;;5.32;2.30;;;20.30;65.60;;;;;;10434738;28;20068;-55
2022/05/21 04:49:36;;;;;;;3.60;2.15;;;20.30;65.50;;;;;;10419218;28;20033;-55
2022/05/21 04:54:37;;;;;;;4.03;2.58;;;20.30;65.70;;;;;;10419187;28;20083;-55
2022/05/21 04:59:38;;;;;;;6.13;3.85;;;20.30;66.20;;;;;;10424871;28;20049;-56
2022/05/21 05:04:39;;;;;;;8.88;3.58;;;20.30;66.10;;;;;;10420072;28;20052;-54
2022/05/21 05:09:44;;;;;;;9.13;2.90;;;20.40;66.60;;;;;;10419873;28;20045;-55
2022/05/21 05:14:45;;;;;;;9.50;3.35;;;20.60;66.30;;;;;;10419268;28;20110;-55
2022/05/21 05:19:46;;;;;;;12.10;3.45;;;20.70;66.50;;;;;;10414975;28;20117;-54
2022/05/21 05:24:47;;;;;;;6.43;2.92;;;20.60;67.20;;;;;;10423112;28;20036;-53
2022/05/21 05:29:48;;;;;;;10.93;3.13;;;20.60;67.40;;;;;;10417870;28;20043;-50
2022/05/21 05:34:49;;;;;;;7.97;3.03;;;20.60;67.60;;;;;;10417658;28;20470;-52
2022/05/21 05:39:49;;;;;;;12.45;3.50;;;20.50;67.20;;;;;;10416512;28;20125;-56
2022/05/21 05:44:50;;;;;;;10.32;2.70;;;20.50;67.70;;;;;;10415056;28;20029;-55
2022/05/21 05:49:51;;;;;;;9.95;3.83;;;20.40;67.10;;;;;;10414900;28;20450;-56
2022/05/21 05:54:52;;;;;;;30.83;5.28;;;20.50;67.10;;;;;;10415674;28;20057;-54
2022/05/21 05:59:53;;;;;;;18.23;5.20;;;20.40;66.90;;;;;;10432136;28;20029;-57
2022/05/21 06:04:55;;;;;;;20.23;3.95;;;20.50;67.40;;;;;;10410992;28;20128;-55
2022/05/21 06:10:05;;;;;;;20.50;4.05;;;20.40;66.90;;;;;;10414651;28;20540;-55
2022/05/21 06:15:07;;;;;;;18.73;4.28;;;20.40;67.00;;;;;;10416196;28;20036;-54
2022/05/21 06:20:14;;;;;;;18.95;4.25;;;20.40;66.90;;;;;;10414238;28;20029;-54
2022/05/21 06:25:22;;;;;;;34.28;5.82;;;20.40;67.00;;;;;;10414160;28;20037;-56
2022/05/21 06:30:26;;;;;;;20.50;4.15;;;20.40;66.90;;;;;;10412975;28;20101;-55
2022/05/21 06:35:27;;;;;;;17.58;4.32;;;20.40;66.80;;;;;;10415379;28;20046;-55
2022/05/21 06:40:28;;;;;;;22.90;5.32;;;20.40;65.80;;;;;;10415543;28;20061;-56
2022/05/21 06:45:31;;;;;;;15.32;4.32;;;20.30;65.40;;;;;;10414538;28;20029;-57
2022/05/21 06:50:33;;;;;;;14.40;4.47;;;20.30;65.30;;;;;;10396800;28;20032;-57
2022/05/21 06:55:34;;;;;;;14.60;3.88;;;20.30;64.60;;;;;;10414311;28;20033;-58
2022/05/21 07:00:35;;;;;;;23.20;4.25;;;20.30;64.00;;;;;;10412903;28;20087;-57
2022/05/21 07:10:54;;;;;;;43.60;9.77;;;20.30;62.80;;;;;;10413675;28;20037;-58
2022/05/21 07:15:55;;;;;;;30.60;6.80;;;20.20;62.50;;;;;;10413435;28;20410;-58
2022/05/21 07:20:56;;;;;;;41.17;5.78;;;20.20;62.50;;;;;;10409159;28;20036;-57
2022/05/21 07:25:57;;;;;;;19.67;4.90;;;20.20;62.00;;;;;;10415008;28;20029;-57
2022/05/21 07:30:58;;;;;;;14.65;5.05;;;20.20;62.10;;;;;;10412569;28;20091;-58
2022/05/21 07:35:59;;;;;;;14.90;3.95;;;20.20;62.20;;;;;;10412581;28;20045;-57
2022/05/21 07:41:00;;;;;;;19.13;4.35;;;20.30;61.90;;;;;;10413277;28;20032;-58
2022/05/21 07:46:02;;;;;;;24.70;5.32;;;20.30;61.70;;;;;;10409081;28;20041;-58
2022/05/21 07:51:03;;;;;;;14.45;3.55;;;20.20;61.30;;;;;;10410972;28;20025;-58
2022/05/21 07:56:05;;;;;;;19.67;3.92;;;20.20;61.20;;;;;;10428642;28;20363;-57
2022/05/21 08:01:06;;;;;;;15.80;4.28;;;20.20;61.20;;;;;;10412157;28;20112;-58
2022/05/21 08:06:06;;;;;;;11.45;3.75;;;20.20;61.10;;;;;;10395261;28;20565;-57
2022/05/21 08:11:07;;;;;;;14.35;4.10;;;20.20;60.70;;;;;;10411586;28;20048;-59
2022/05/21 08:16:09;;;;;;;22.65;4.90;;;20.20;60.90;;;;;;10416394;28;20021;-57
2022/05/21 08:21:09;;;;;;;13.23;3.25;;;20.10;61.10;;;;;;10419025;28;20072;-57
2022/05/21 08:31:29;;;;;;;13.45;3.30;;;20.20;61.50;;;;;;10420466;28;20041;-58
2022/05/21 08:36:31;;;;;;;9.07;3.40;;;20.20;61.70;;;;;;10420734;28;20130;-57
2022/05/21 08:41:34;;;;;;;13.82;4.10;;;20.20;61.80;;;;;;10418843;28;20029;-58
2022/05/21 08:46:40;;;;;;;10.50;3.05;;;20.20;62.00;;;;;;10418881;28;20025;-57
2022/05/21 08:51:58;;;;;;;14.23;3.78;;;20.20;62.00;;;;;;10419806;28;20060;-57
2022/05/21 08:56:59;;;;;;;12.90;3.28;;;20.20;62.00;;;;;;10418612;28;20096;-57
2022/05/21 09:01:59;;;;;;;7.47;2.63;;;20.20;62.50;;;;;;10400538;28;20030;-57
2022/05/21 09:07:15;;;;;;;11.60;3.15;;;20.20;62.30;;;;;;10418085;28;20029;-57
2022/05/21 09:12:23;;;;;;;13.95;3.65;;;20.20;62.40;;;;;;10388043;28;20027;-58
2022/05/21 09:17:25;;;;;;;6.00;2.58;;;20.30;62.70;;;;;;10415370;28;20038;-57
2022/05/21 09:22:26;;;;;;;11.18;2.70;;;20.30;62.50;;;;;;10428548;28;20371;-58
2022/05/21 09:27:42;;;;;;;15.45;4.10;;;20.30;62.70;;;;;;10417151;28;20029;-60
2022/05/21 09:32:48;;;;;;;14.05;3.08;;;20.30;65.80;;;;;;10419090;28;20041;-58
2022/05/21 09:37:49;;;;;;;18.52;4.57;;;20.40;66.60;;;;;;10417530;28;20120;-59
2022/05/21 09:48:10;;;;;;;24.73;4.82;;;20.50;66.20;;;;;;10415024;28;20053;-59
2022/05/21 09:53:38;;;;;;;26.52;5.07;;;20.60;66.00;;;;;;10417395;28;20033;-59
2022/05/21 09:58:41;;;;;;;15.52;4.50;;;20.60;66.30;;;;;;10432406;28;20028;-59
2022/05/21 10:03:53;;;;;;;18.15;4.93;;;20.70;65.80;;;;;;10425218;28;20470;-59
2022/05/21 10:15:13;;;;;;;20.50;5.38;;;20.90;65.40;;;;;;10411063;28;20045;-58
2022/05/21 10:20:29;;;;;;;14.50;4.97;;;21.00;65.10;;;;;;10411708;28;20555;-58
2022/05/21 10:25:59;;;;;;;15.15;5.68;;;21.00;65.00;;;;;;10416708;28;20037;-57
2022/05/21 10:31:13;;;;;;;;;;;21.00;64.70;;;;;;10415445;28;20029;-58
2022/05/21 10:36:30;;;;;;;12.23;7.20;;;20.90;63.80;;;;;;10415127;28;19940;-58
2022/05/21 10:41:42;;;;;;;11.48;5.80;;;20.90;63.60;;;;;;10413246;28;20038;-57
2022/05/21 10:47:13;;;;;;;13.55;6.18;;;21.00;63.20;;;;;;10412678;28;20034;-56
2022/05/21 10:52:54;;;;;;;13.95;5.72;;;20.90;62.00;;;;;;10405241;28;20041;-59
2022/05/21 10:58:28;;;;;;;14.48;5.50;;;21.10;61.70;;;;;;10379874;28;20049;-57
2022/05/21 11:03:59;;;;;;;11.32;5.30;;;21.20;59.70;;;;;;10414562;28;20095;-55
2022/05/21 11:09:23;;;;;;;15.02;5.85;;;21.10;59.90;;;;;;10414905;28;20026;-54
2022/05/21 11:14:46;;;;;;;16.40;5.60;;;21.00;60.80;;;;;;10407095;28;20038;-52
2022/05/21 11:20:11;;;;;;;11.77;4.65;;;21.10;61.60;;;;;;10401029;28;20026;-53
2022/05/21 11:25:39;;;;;;;15.38;6.15;;;21.00;62.30;;;;;;10415921;28;20034;-55
2022/05/21 11:30:39;;;;;;;12.75;5.55;;;21.10;62.50;;;;;;10412370;28;20052;-57
2022/05/21 11:41:30;;;;;;;12.80;5.43;;;21.10;62.90;;;;;;10396958;28;20046;-58
2022/05/21 11:46:37;;;;;;;18.48;6.10;;;21.00;63.00;;;;;;10424761;28;20057;-58
2022/05/21 11:51:38;;;;;;;20.83;6.65;;;20.90;63.00;;;;;;10411936;28;20033;-58
2022/05/21 11:57:04;;;;;;;23.00;6.47;;;20.90;63.70;;;;;;10395417;28;20480;-58
2022/05/21 12:02:31;;;;;;;33.80;7.65;;;20.90;63.90;;;;;;10411625;28;20049;-58
2022/05/21 12:07:42;;;;;;;23.75;5.93;;;20.90;64.10;;;;;;10411786;28;20029;-58
2022/05/21 12:13:13;;;;;;;21.20;7.30;;;20.90;63.60;;;;;;10412728;28;20025;-58
2022/05/21 12:18:35;;;;;;;22.63;6.97;;;20.90;62.00;;;;;;10412316;28;20056;-57
2022/05/21 12:23:36;;;;;;;11.45;5.30;;;20.80;61.40;;;;;;10411188;28;20048;-58
2022/05/21 12:28:51;;;;;;;13.75;5.93;;;20.80;60.90;;;;;;10411918;28;20026;-59
2022/05/21 12:34:23;;;;;;;18.90;5.47;;;20.80;60.60;;;;;;10410331;28;20053;-55
2022/05/21 12:39:50;;;;;;;16.35;5.82;;;20.80;62.70;;;;;;10412599;28;20036;-58
2022/05/21 12:44:51;;;;;;;17.40;6.65;;;20.80;61.30;;;;;;10397629;28;20064;-59
2022/05/21 12:49:52;;;;;;;17.85;5.93;;;20.80;62.10;;;;;;10427330;28;20109;-58
2022/05/21 12:55:19;;;;;;;14.95;4.82;;;20.90;61.70;;;;;;10410243;28;20033;-59
2022/05/21 13:00:23;;;;;;;20.23;5.50;;;20.90;59.60;;;;;;10412866;28;20029;-59
2022/05/21 13:05:32;;;;;;;13.43;5.07;;;20.90;59.70;;;;;;10418116;28;20033;-61
2022/05/21 13:10:36;;;;;;;14.00;4.93;;;20.90;59.90;;;;;;10418122;28;20033;-59
2022/05/21 13:15:46;;;;;;;21.80;5.85;;;20.90;59.80;;;;;;10409602;28;20033;-62
2022/05/21 13:21:19;;;;;;;17.00;5.70;;;20.90;59.60;;;;;;10414821;28;20112;-59
2022/05/21 13:26:31;;;;;;;13.68;4.63;;;20.80;59.60;;;;;;10415553;28;20029;-59
2022/05/21 13:31:31;;;;;;;10.70;4.40;;;20.80;59.30;;;;;;10407254;28;20382;-58
2022/05/21 13:36:34;;;;;;;7.47;3.05;;;20.90;58.90;;;;;;10416755;28;20061;-59
2022/05/21 13:41:40;;;;;;;6.85;3.95;;;20.80;58.80;;;;;;10433287;28;20029;-60
2022/05/21 13:46:41;;;;;;;16.00;4.10;;;20.80;58.40;;;;;;10416630;28;20033;-59
2022/05/21 13:51:43;;;;;;;6.70;2.85;;;20.90;58.20;;;;;;10407068;28;20033;-57
2022/05/21 13:56:44;;;;;;;11.55;3.70;;;20.90;57.70;;;;;;10395055;28;20045;-61
2022/05/21 14:01:53;;;;;;;7.00;2.97;;;20.90;57.80;;;;;;10380268;28;20672;-62
2022/05/21 14:06:54;;;;;;;;;;;20.90;57.90;;;;;;10402786;28;20111;-59
2022/05/21 14:12:03;;;;;;;8.77;3.15;;;20.80;57.90;;;;;;10414723;28;19927;-60
2022/05/21 14:17:10;;;;;;;;;;;20.80;58.00;;;;;;10414389;28;20029;-59
2022/05/21 14:22:21;;;;;;;6.63;3.28;;;20.80;57.90;;;;;;10415886;28;19941;-59
2022/05/21 14:27:26;;;;;;;8.35;2.95;;;20.70;57.60;;;;;;10413549;28;20453;-60
2022/05/21 14:32:39;;;;;;;7.18;2.55;;;20.80;57.70;;;;;;10414249;28;20053;-60
2022/05/21 14:37:40;;;;;;;8.20;3.20;;;20.70;57.70;;;;;;10414650;28;20041;-61
2022/05/21 14:42:41;;;;;;;7.65;2.72;;;20.70;57.40;;;;;;10430764;28;20044;-61
2022/05/21 14:47:54;;;;;;;10.07;3.83;;;20.70;57.80;;;;;;10415229;28;20073;-60
2022/05/21 14:53:00;;;;;;;11.82;3.35;;;20.70;57.70;;;;;;10413447;28;20029;-61
2022/05/21 14:58:01;;;;;;;12.50;3.60;;;20.70;57.70;;;;;;10411459;28;20040;-60
2022/05/21 15:03:06;;;;;;;10.10;3.08;;;20.70;57.70;;;;;;10413456;28;20029;-58
2022/05/21 15:08:17;;;;;;;15.95;3.70;;;20.70;57.80;;;;;;10412981;28;20116;-59
2022/05/21 15:13:18;;;;;;;12.95;2.60;;;20.80;56.70;;;;;;10415131;28;20106;-61
2022/05/21 15:18:18;;;;;;;7.97;3.42;;;20.70;56.40;;;;;;10411421;28;20057;-59
2022/05/21 15:23:19;;;;;;;22.02;5.38;;;20.70;56.40;;;;;;10412873;28;20072;-58
2022/05/21 15:28:20;;;;;;;18.83;4.35;;;20.70;56.40;;;;;;10410612;28;20065;-60
2022/05/21 15:33:20;;;;;;;13.50;3.50;;;20.70;56.90;;;;;;10412312;28;20060;-64
2022/05/21 15:38:21;;;;;;;18.40;4.95;;;20.70;56.50;;;;;;10411829;28;20036;-62
2022/05/21 15:43:22;;;;;;;13.02;4.05;;;20.70;56.40;;;;;;10405993;28;20111;-62
2022/05/21 15:48:23;;;;;;;14.05;3.85;;;20.70;57.20;;;;;;10411120;28;20029;-64
2022/05/21 15:53:25;;;;;;;15.15;3.20;;;20.70;56.90;;;;;;10406283;28;20412;-64
2022/05/21 15:58:25;;;;;;;16.90;4.43;;;20.70;56.70;;;;;;10410125;28;20074;-62
2022/05/21 16:03:26;;;;;;;10.30;3.55;;;20.70;56.60;;;;;;10411804;28;20083;-62
2022/05/21 16:08:27;;;;;;;10.50;3.60;;;20.60;56.40;;;;;;10410763;28;20071;-61
2022/05/21 16:13:28;;;;;;;10.73;3.13;;;20.60;56.40;;;;;;10410529;28;20100;-63
2022/05/21 16:18:29;;;;;;;7.60;3.90;;;20.70;56.40;;;;;;10411889;28;20116;-63
2022/05/21 16:23:29;;;;;;;9.02;2.65;;;20.70;56.50;;;;;;10414458;28;20509;-62
2022/05/21 16:28:30;;;;;;;8.85;2.83;;;20.70;56.90;;;;;;10411589;28;20037;-62
2022/05/21 16:33:31;;;;;;;18.30;5.72;;;20.70;56.70;;;;;;10412307;28;20649;-61
2022/05/21 16:38:33;;;;;;;10.70;3.30;;;20.70;56.60;;;;;;10417272;28;20380;-60
2022/05/21 16:43:33;;;;;;;7.60;2.83;;;20.80;56.40;;;;;;10417081;28;20059;-60
2022/05/21 16:48:36;;;;;;;8.15;2.90;;;20.80;56.70;;;;;;10419447;28;20113;-60
2022/05/21 16:53:37;;;;;;;12.07;3.53;;;20.80;59.30;;;;;;10419441;28;20033;-59
2022/05/21 16:58:38;;;;;;;12.10;4.00;;;20.70;58.50;;;;;;10410891;28;20052;-61
2022/05/21 17:03:39;;;;;;;9.60;2.85;;;20.70;58.30;;;;;;10418622;28;20030;-61
2022/05/21 17:08:41;;;;;;;7.13;3.08;;;20.90;58.60;;;;;;10411232;28;20029;-60
2022/05/21 17:13:42;;;;;;;7.55;3.13;;;20.90;57.90;;;;;;10401407;28;20060;-61
2022/05/21 17:18:43;;;;;;;8.10;3.55;;;20.80;57.40;;;;;;10414309;28;20045;-61
2022/05/21 17:23:43;;;;;;;11.05;3.63;;;20.70;57.00;;;;;;10418482;28;20033;-62
2022/05/21 17:34:03;;;;;;;7.45;3.13;;;20.60;57.40;;;;;;10417173;28;20046;-62
2022/05/21 17:39:04;;;;;;;5.57;2.65;;;20.60;57.20;;;;;;10417822;28;20033;-61
2022/05/21 17:44:06;;;;;;;7.57;2.30;;;20.60;56.70;;;;;;10415928;28;20033;-61
2022/05/21 17:49:06;;;;;;;6.93;3.63;;;20.60;56.10;;;;;;10414278;28;20041;-61
2022/05/21 17:54:07;;;;;;;5.57;2.75;;;20.60;56.00;;;;;;10417420;28;20095;-62
2022/05/21 17:59:08;;;;;;;6.38;3.03;;;20.60;55.80;;;;;;10419333;28;20067;-62
2022/05/21 18:04:09;;;;;;;5.80;2.92;;;20.60;55.90;;;;;;10417070;28;20466;-61
2022/05/21 18:09:10;;;;;;;7.13;2.35;;;20.60;55.80;;;;;;10398857;28;20501;-61
2022/05/21 18:14:11;;;;;;;6.60;2.78;;;20.60;55.90;;;;;;10416256;28;20247;-60
2022/05/21 18:19:20;;;;;;;14.02;3.95;;;20.60;56.10;;;;;;10415583;28;20383;-61
2022/05/21 18:24:24;;;;;;;16.45;4.70;;;20.60;55.20;;;;;;10414274;28;20069;-61
2022/05/21 18:29:25;;;;;;;12.65;4.03;;;20.60;55.60;;;;;;10410739;28;20144;-62
2022/05/21 18:34:26;;;;;;;9.65;3.17;;;20.50;55.40;;;;;;10416108;28;20164;-63
2022/05/21 18:39:27;;;;;;;7.32;2.80;;;20.50;55.90;;;;;;10412043;28;20049;-62
2022/05/21 18:44:28;;;;;;;9.27;3.92;;;20.50;55.90;;;;;;10427110;28;20029;-62
2022/05/21 18:49:29;;;;;;;10.77;2.63;;;20.60;56.50;;;;;;10413584;28;20041;-60
2022/05/21 18:54:30;;;;;;;10.48;3.17;;;20.60;56.60;;;;;;10414503;28;20453;-62
2022/05/21 18:59:31;;;;;;;7.80;2.75;;;20.60;57.00;;;;;;10413544;28;20071;-62
2022/05/21 19:04:32;;;;;;;9.55;3.33;;;20.60;57.10;;;;;;10414077;28;20057;-61
2022/05/21 19:09:33;;;;;;;8.05;2.80;;;20.60;57.40;;;;;;10413830;28;20500;-62
2022/05/21 19:14:34;;;;;;;6.97;2.28;;;20.60;57.60;;;;;;10413543;28;20036;-62
2022/05/21 19:19:35;;;;;;;8.85;2.97;;;20.60;57.90;;;;;;10413020;28;20622;-62
2022/05/21 19:24:38;;;;;;;6.82;2.42;;;20.60;58.20;;;;;;10415416;28;20120;-62
2022/05/21 19:29:40;;;;;;;5.70;2.50;;;20.60;58.40;;;;;;10405121;28;20026;-62
2022/05/21 19:34:42;;;;;;;11.30;5.05;;;20.60;58.80;;;;;;10402598;28;20041;-62
2022/05/21 19:45:03;;;;;;;9.05;3.53;;;20.70;60.50;;;;;;10401050;28;20038;-62
2022/05/21 19:50:04;;;;;;;7.22;2.90;;;20.70;60.40;;;;;;10412412;28;20022;-61
2022/05/21 19:55:05;;;;;;;8.95;2.75;;;20.70;60.00;;;;;;10411277;28;20044;-63
2022/05/21 20:00:07;;;;;;;6.45;2.70;;;20.70;60.10;;;;;;10412297;28;20040;-63
2022/05/21 20:05:08;;;;;;;7.80;2.97;;;20.60;60.50;;;;;;10410198;28;20030;-62
2022/05/21 20:10:09;;;;;;;4.80;3.13;;;20.70;60.40;;;;;;10407864;28;20498;-62
2022/05/21 20:15:11;;;;;;;6.68;2.45;;;20.60;60.30;;;;;;10409725;28;20041;-63
2022/05/21 20:20:21;;;;;;;5.78;2.55;;;20.60;60.20;;;;;;10388737;28;20029;-62
2022/05/21 20:25:22;;;;;;;6.00;2.60;;;20.60;60.30;;;;;;10414253;28;20382;-63
2022/05/21 20:30:23;;;;;;;5.80;2.38;;;20.60;60.20;;;;;;10411646;28;20045;-62
2022/05/21 20:35:24;;;;;;;4.90;2.25;;;20.60;60.10;;;;;;10411786;28;20041;-60
2022/05/21 20:40:25;;;;;;;6.00;1.98;;;20.60;60.10;;;;;;10412153;28;20037;-63
2022/05/21 20:45:25;;;;;;;5.97;2.38;;;20.60;60.30;;;;;;10410328;28;20481;-63
2022/05/21 20:50:26;;;;;;;4.80;2.20;;;20.60;60.10;;;;;;10427569;28;20021;-63
2022/05/21 20:55:27;;;;;;;3.72;1.92;;;20.60;60.00;;;;;;10410430;28;20038;-64
2022/05/21 21:00:28;;;;;;;5.45;2.00;;;20.60;60.00;;;;;;10411750;28;20140;-63
2022/05/21 21:05:29;;;;;;;3.85;2.78;;;20.60;60.00;;;;;;10426714;28;20044;-63
2022/05/21 21:10:30;;;;;;;3.75;1.60;;;20.50;60.00;;;;;;10427080;28;20036;-63
2022/05/21 21:15:32;;;;;;;5.45;1.42;;;20.50;59.90;;;;;;10426497;28;20057;-63
2022/05/21 21:20:34;;;;;;;3.47;1.60;;;20.50;59.90;;;;;;10413898;28;20087;-63
2022/05/21 21:25:34;;;;;;;4.20;2.15;;;20.50;60.00;;;;;;10418955;28;20029;-63
2022/05/21 21:30:36;;;;;;;5.50;2.10;;;20.50;59.90;;;;;;10418579;28;20091;-63
2022/05/21 21:35:37;;;;;;;11.25;2.00;;;20.50;60.00;;;;;;10417970;28;20041;-63
2022/05/21 21:40:38;;;;;;;4.30;1.73;;;20.50;60.00;;;;;;10418079;28;20026;-63
2022/05/21 21:45:39;;;;;;;3.45;2.00;;;20.50;60.00;;;;;;10417296;28;20116;-63
2022/05/21 21:50:39;;;;;;;3.92;1.92;;;20.50;60.00;;;;;;10432887;28;20060;-63
2022/05/21 21:55:40;;;;;;;2.65;1.60;;;20.50;59.90;;;;;;10417594;28;20121;-64
2022/05/21 22:01:24;;;;;;;4.32;1.70;;;20.40;60.40;;;;;;10416095;28;20034;-63
2022/05/21 22:06:25;;;;;;;3.72;1.70;;;20.40;59.80;;;;;;10406649;28;20049;-63
2022/05/21 22:11:28;;;;;;;2.95;1.52;;;20.40;59.80;;;;;;10417127;28;20033;-63
2022/05/21 22:16:29;;;;;;;2.65;1.40;;;20.40;59.80;;;;;;10415334;28;20025;-63
2022/05/21 22:21:32;;;;;;;3.00;1.85;;;20.40;59.80;;;;;;10405086;28;20025;-63
2022/05/21 22:26:35;;;;;;;4.28;1.63;;;20.40;59.70;;;;;;10416075;28;20034;-63
2022/05/21 22:31:36;;;;;;;3.88;1.70;;;20.40;59.70;;;;;;10415636;28;20402;-62
2022/05/21 22:36:39;;;;;;;2.15;1.25;;;20.40;59.60;;;;;;10430710;28;20037;-64
2022/05/21 22:41:39;;;;;;;3.42;1.98;;;20.40;59.60;;;;;;10414426;28;20061;-63
2022/05/21 22:46:40;;;;;;;4.00;1.80;;;20.40;59.60;;;;;;10415024;28;20037;-64
2022/05/21 22:51:44;;;;;;;2.38;1.20;;;20.40;59.60;;;;;;10413967;28;20053;-64
2022/05/21 22:56:46;;;;;;;2.50;1.45;;;20.40;59.50;;;;;;10414965;28;20029;-64
2022/05/21 23:01:47;;;;;;;2.35;1.77;;;20.30;59.40;;;;;;10414607;28;20085;-64
2022/05/21 23:06:48;;;;;;;2.75;1.27;;;20.40;59.50;;;;;;10429663;28;20087;-63
2022/05/21 23:11:48;;;;;;;3.67;1.50;;;20.30;59.40;;;;;;10430038;28;20061;-64
2022/05/21 23:22:26;;;;;;;4.32;1.52;;;20.30;59.30;;;;;;10416002;28;20041;-63
2022/05/21 23:27:28;;;;;;;3.93;1.40;;;20.30;59.30;;;;;;10413929;28;20030;-64
2022/05/21 23:32:28;;;;;;;2.85;1.65;;;20.30;59.30;;;;;;10413606;28;20045;-64
2022/05/21 23:37:29;;;;;;;2.55;1.30;;;20.30;59.30;;;;;;10413427;28;20136;-64
2022/05/21 23:42:30;;;;;;;2.10;1.30;;;20.30;59.30;;;;;;10413385;28;20108;-63
2022/05/21 23:47:30;;;;;;;2.88;1.20;;;20.20;59.20;;;;;;10413153;28;20033;-64
2022/05/21 23:52:32;;;;;;;3.65;1.55;;;20.20;59.20;;;;;;10413234;28;20089;-64
2022/05/21 23:57:34;;;;;;;2.38;1.25;;;20.30;59.20;;;;;;10412397;28;20025;-62
